createdAt,value
2017-10-15T00:00:16.380Z,86.40
2017-10-15T00:02:44.696Z,86.50
2017-10-15T00:05:13.727Z,86.60
2017-10-15T00:07:42.011Z,86.60
2017-10-15T00:10:10.291Z,86.20
2017-10-15T00:12:39.350Z,85.80
2017-10-15T00:15:07.620Z,85.70
2017-10-15T00:17:36.662Z,85.70
2017-10-15T00:20:04.951Z,85.20
2017-10-15T00:22:33.232Z,85.40
2017-10-15T00:25:02.256Z,87.10
2017-10-15T00:27:30.531Z,87.10
2017-10-15T00:29:58.795Z,87.40
2017-10-15T00:32:27.071Z,87.00
2017-10-15T00:34:55.288Z,86.80
2017-10-15T00:37:23.549Z,87.00
2017-10-15T00:39:51.777Z,86.80
2017-10-15T00:42:20.772Z,87.40
2017-10-15T00:44:49.028Z,87.40
2017-10-15T00:47:17.260Z,87.40
2017-10-15T00:49:45.490Z,87.60
2017-10-15T00:52:13.756Z,87.80
2017-10-15T00:54:41.995Z,87.50
2017-10-15T00:57:10.211Z,87.40
2017-10-15T00:59:39.232Z,87.30
2017-10-15T01:02:07.462Z,87.20
2017-10-15T01:04:36.452Z,86.90
2017-10-15T01:07:04.848Z,86.80
2017-10-15T01:09:33.073Z,86.80
2017-10-15T01:12:01.301Z,86.80
2017-10-15T01:14:29.728Z,86.90
2017-10-15T01:16:57.947Z,86.70
2017-10-15T01:19:26.172Z,86.70
2017-10-15T01:21:54.814Z,87.10
2017-10-15T01:24:23.049Z,86.80
2017-10-15T01:26:51.276Z,86.90
2017-10-15T01:29:20.304Z,87.10
2017-10-15T01:31:49.313Z,86.60
2017-10-15T01:34:17.536Z,86.50
2017-10-15T01:36:45.893Z,86.40
2017-10-15T01:39:14.124Z,86.00
2017-10-15T01:41:43.136Z,86.50
2017-10-15T01:44:11.408Z,86.30
2017-10-15T01:46:39.632Z,86.30
2017-10-15T01:49:08.624Z,86.80
2017-10-15T01:51:36.877Z,86.60
2017-10-15T01:54:05.868Z,86.80
2017-10-15T01:56:34.372Z,86.80
2017-10-15T01:59:02.724Z,87.30
2017-10-15T02:01:30.994Z,87.60
2017-10-15T02:03:59.212Z,87.10
2017-10-15T02:06:27.492Z,87.10
2017-10-15T02:08:55.729Z,87.00
2017-10-15T02:11:24.024Z,86.60
2017-10-15T02:13:52.285Z,85.90
2017-10-15T02:16:20.517Z,86.00
2017-10-15T02:18:48.755Z,86.00
2017-10-15T02:21:17.765Z,86.10
2017-10-15T02:23:46.010Z,86.10
2017-10-15T02:26:14.988Z,86.50
2017-10-15T02:28:43.385Z,86.50
2017-10-15T02:31:12.420Z,86.60
2017-10-15T02:33:41.419Z,86.70
2017-10-15T02:36:09.664Z,86.70
2017-10-15T02:38:37.888Z,87.00
2017-10-15T02:41:06.883Z,86.90
2017-10-15T02:43:35.921Z,87.10
2017-10-15T02:46:04.157Z,87.00
2017-10-15T02:48:32.377Z,86.80
2017-10-15T02:51:00.640Z,87.00
2017-10-15T02:53:28.876Z,87.60
2017-10-15T02:55:57.101Z,86.50
2017-10-15T02:58:25.380Z,86.60
2017-10-15T03:00:53.652Z,86.70
2017-10-15T03:03:21.886Z,87.10
2017-10-15T03:05:50.152Z,87.00
2017-10-15T03:08:18.377Z,86.90
2017-10-15T03:10:47.382Z,87.60
2017-10-15T03:13:15.640Z,87.50
2017-10-15T03:15:43.873Z,87.60
2017-10-15T03:18:12.865Z,88.00
2017-10-15T03:20:41.137Z,88.00
2017-10-15T03:23:09.361Z,87.70
2017-10-15T03:25:37.580Z,87.90
2017-10-15T03:28:05.840Z,87.90
2017-10-15T03:30:34.093Z,87.90
2017-10-15T03:33:02.296Z,88.10
2017-10-15T03:35:31.436Z,88.30
2017-10-15T03:37:59.662Z,88.40
2017-10-15T03:40:28.656Z,88.40
2017-10-15T03:42:56.922Z,88.30
2017-10-15T03:45:25.149Z,87.80
2017-10-15T03:47:54.197Z,88.20
2017-10-15T03:50:22.554Z,87.60
2017-10-15T03:52:50.789Z,87.40
2017-10-15T03:55:19.012Z,87.20
2017-10-15T03:57:48.044Z,87.50
2017-10-15T04:00:16.280Z,87.50
2017-10-15T04:02:44.529Z,87.40
2017-10-15T04:05:12.785Z,87.20
2017-10-15T04:07:41.812Z,87.40
2017-10-15T04:10:10.045Z,87.40
2017-10-15T04:12:38.292Z,87.50
2017-10-15T04:15:06.528Z,87.70
2017-10-15T04:17:35.537Z,88.30
2017-10-15T04:20:03.792Z,87.50
2017-10-15T04:22:32.017Z,87.20
2017-10-15T04:25:00.250Z,87.30
2017-10-15T04:27:28.916Z,87.40
2017-10-15T04:29:57.144Z,87.30
2017-10-15T04:32:25.373Z,87.20
2017-10-15T04:34:53.695Z,87.20
2017-10-15T04:37:21.925Z,87.30
2017-10-15T04:39:50.152Z,87.30
2017-10-15T04:42:18.411Z,87.30
2017-10-15T04:44:47.412Z,87.90
2017-10-15T04:47:16.405Z,88.10
2017-10-15T04:49:44.705Z,88.00
2017-10-15T04:52:12.929Z,87.80
2017-10-15T04:54:41.177Z,87.60
2017-10-15T04:57:10.209Z,87.60
2017-10-15T04:59:38.436Z,87.60
2017-10-15T05:02:06.669Z,87.60
2017-10-15T05:04:35.709Z,87.50
2017-10-15T05:07:03.937Z,87.40
2017-10-15T05:09:32.177Z,87.60
2017-10-15T05:12:01.204Z,87.60
2017-10-15T05:14:29.433Z,87.50
2017-10-15T05:16:57.664Z,87.50
2017-10-15T05:19:26.693Z,87.30
2017-10-15T05:21:54.916Z,87.30
2017-10-15T05:24:23.145Z,87.20
2017-10-15T05:26:51.426Z,87.60
2017-10-15T05:29:20.412Z,87.60
2017-10-15T05:31:48.636Z,87.50
2017-10-15T05:34:16.902Z,87.60
2017-10-15T05:36:45.124Z,88.00
2017-10-15T05:39:13.356Z,88.10
2017-10-15T05:41:42.404Z,88.00
2017-10-15T05:44:10.628Z,87.90
2017-10-15T05:46:38.857Z,87.60
2017-10-15T05:49:07.109Z,87.80
2017-10-15T05:51:36.101Z,87.20
2017-10-15T05:54:04.334Z,87.10
2017-10-15T05:56:32.608Z,87.80
2017-10-15T05:59:01.600Z,87.30
2017-10-15T06:01:29.833Z,87.30
2017-10-15T06:03:58.849Z,87.70
2017-10-15T06:06:27.072Z,87.50
2017-10-15T06:08:56.063Z,88.10
2017-10-15T06:11:25.239Z,87.50
2017-10-15T06:13:54.311Z,88.00
2017-10-15T06:16:22.532Z,88.00
2017-10-15T06:18:50.822Z,88.00
2017-10-15T06:21:19.049Z,87.30
2017-10-15T06:23:47.272Z,87.10
2017-10-15T06:26:15.537Z,87.30
2017-10-15T06:28:43.769Z,87.30
2017-10-15T06:31:12.765Z,87.00
2017-10-15T06:33:41.808Z,86.70
2017-10-15T06:36:10.033Z,86.60
2017-10-15T06:38:38.274Z,86.70
2017-10-15T06:41:06.529Z,86.80
2017-10-15T06:43:34.769Z,86.60
2017-10-15T06:46:03.779Z,86.00
2017-10-15T06:48:32.057Z,86.00
2017-10-15T06:51:00.285Z,85.50
2017-10-15T06:53:29.280Z,85.20
2017-10-15T06:55:57.668Z,85.20
2017-10-15T06:58:25.892Z,85.00
2017-10-15T07:00:54.880Z,85.00
2017-10-15T07:03:23.156Z,85.00
2017-10-15T07:05:51.392Z,84.60
2017-10-15T07:08:19.612Z,84.30
2017-10-15T07:10:47.914Z,83.90
2017-10-15T07:13:16.900Z,82.50
2017-10-15T07:15:45.135Z,83.50
2017-10-15T07:18:14.164Z,82.50
2017-10-15T07:20:42.424Z,81.60
2017-10-15T07:23:10.659Z,81.80
2017-10-15T07:25:39.057Z,81.90
2017-10-15T07:28:07.288Z,82.10
2017-10-15T07:30:35.538Z,82.10
2017-10-15T07:33:04.547Z,81.10
2017-10-15T07:35:32.805Z,81.10
2017-10-15T07:38:01.033Z,80.70
2017-10-15T07:40:29.310Z,80.60
2017-10-15T07:42:57.540Z,80.40
2017-10-15T07:45:26.557Z,80.10
2017-10-15T07:47:54.816Z,80.10
2017-10-15T07:50:23.050Z,79.90
2017-10-15T07:52:52.045Z,79.90
2017-10-15T07:55:20.301Z,79.80
2017-10-15T07:57:48.533Z,79.40
2017-10-15T08:00:16.770Z,79.70
2017-10-15T08:02:45.030Z,80.10
2017-10-15T08:05:13.261Z,79.80
2017-10-15T08:07:41.493Z,80.10
2017-10-15T08:10:10.536Z,78.90
2017-10-15T08:12:38.764Z,78.70
2017-10-15T08:15:07.001Z,77.00
2017-10-15T08:17:35.318Z,78.40
2017-10-15T08:20:03.536Z,78.20
2017-10-15T08:22:31.765Z,78.50
2017-10-15T08:25:00.796Z,77.80
2017-10-15T08:27:29.030Z,77.70
2017-10-15T08:29:57.314Z,77.70
2017-10-15T08:32:25.584Z,76.70
2017-10-15T08:34:53.825Z,76.10
2017-10-15T08:37:22.056Z,76.80
2017-10-15T08:39:50.456Z,76.50
2017-10-15T08:42:18.683Z,77.30
2017-10-15T08:44:46.926Z,76.00
2017-10-15T08:47:15.960Z,75.20
2017-10-15T08:49:44.188Z,75.20
2017-10-15T08:52:12.429Z,75.20
2017-10-15T08:54:41.564Z,74.00
2017-10-15T08:57:09.801Z,74.00
2017-10-15T08:59:38.045Z,73.10
2017-10-15T09:02:07.089Z,70.40
2017-10-15T09:04:35.324Z,70.30
2017-10-15T09:07:03.593Z,69.30
2017-10-15T09:09:31.842Z,70.20
2017-10-15T09:12:00.082Z,69.60
2017-10-15T09:14:28.320Z,69.80
2017-10-15T09:16:57.349Z,66.00
2017-10-15T09:19:25.584Z,65.90
2017-10-15T09:21:53.825Z,64.80
2017-10-15T09:24:22.117Z,63.80
2017-10-15T09:26:50.344Z,62.10
2017-10-15T09:29:18.580Z,64.20
2017-10-15T09:31:47.616Z,62.70
2017-10-15T09:34:15.857Z,62.70
2017-10-15T09:36:44.105Z,62.20
2017-10-15T09:39:12.364Z,60.10
2017-10-15T09:41:41.365Z,61.60
2017-10-15T09:44:09.603Z,61.60
2017-10-15T09:46:37.904Z,61.80
2017-10-15T09:49:08.608Z,59.30
2017-10-15T09:51:36.849Z,58.80
2017-10-15T09:54:05.128Z,60.40
2017-10-15T09:56:33.370Z,57.90
2017-10-15T09:59:02.365Z,57.40
2017-10-15T10:01:30.633Z,57.40
2017-10-15T10:03:58.868Z,58.20
2017-10-15T10:06:27.168Z,57.90
2017-10-15T10:08:55.468Z,58.10
2017-10-15T10:11:23.701Z,56.80
2017-10-15T10:13:51.937Z,56.50
2017-10-15T10:16:20.192Z,58.20
2017-10-15T10:18:48.437Z,57.60
2017-10-15T10:21:16.673Z,57.10
2017-10-15T10:23:45.729Z,54.20
2017-10-15T10:26:15.472Z,54.20
2017-10-15T10:28:43.724Z,54.10
2017-10-15T10:31:12.001Z,54.40
2017-10-15T10:33:40.248Z,52.20
2017-10-15T10:36:08.480Z,54.50
2017-10-15T10:38:36.762Z,53.10
2017-10-15T10:41:05.764Z,52.00
2017-10-15T10:43:33.996Z,52.00
2017-10-15T10:46:02.274Z,52.00
2017-10-15T10:48:30.512Z,50.70
2017-10-15T10:50:59.513Z,49.80
2017-10-15T10:53:27.798Z,50.50
2017-10-15T10:55:56.040Z,49.20
2017-10-15T10:58:24.288Z,49.50
2017-10-15T11:00:52.564Z,48.80
2017-10-15T11:03:20.809Z,47.60
2017-10-15T11:05:49.048Z,48.20
2017-10-15T11:08:18.097Z,46.80
2017-10-15T11:10:46.332Z,46.70
2017-10-15T11:13:14.570Z,46.90
2017-10-15T11:15:42.841Z,47.60
2017-10-15T11:18:11.093Z,44.00
2017-10-15T11:20:39.332Z,44.70
2017-10-15T11:23:07.793Z,46.50
2017-10-15T11:25:36.805Z,44.40
2017-10-15T11:28:05.060Z,44.30
2017-10-15T11:30:33.325Z,45.50
2017-10-15T11:33:01.562Z,44.80
2017-10-15T11:35:30.573Z,43.60
2017-10-15T11:37:58.853Z,43.50
2017-10-15T11:40:27.096Z,42.30
2017-10-15T11:42:55.331Z,40.60
2017-10-15T11:45:24.382Z,43.00
2017-10-15T11:47:52.621Z,42.10
2017-10-15T11:50:20.892Z,43.70
2017-10-15T11:52:49.186Z,41.20
2017-10-15T11:55:18.189Z,40.70
2017-10-15T11:57:46.420Z,40.70
2017-10-15T12:00:15.445Z,40.90
2017-10-15T12:02:43.685Z,40.90
2017-10-15T12:05:11.940Z,39.00
2017-10-15T12:07:40.224Z,39.40
2017-10-15T12:10:08.461Z,39.70
2017-10-15T12:12:37.643Z,38.30
2017-10-15T12:15:06.872Z,37.90
2017-10-15T12:17:35.109Z,37.90
2017-10-15T12:20:03.350Z,37.50
2017-10-15T12:22:31.616Z,38.60
2017-10-15T12:24:59.858Z,36.40
2017-10-15T12:27:28.852Z,35.70
2017-10-15T12:29:57.132Z,35.60
2017-10-15T12:32:25.361Z,34.40
2017-10-15T12:34:54.417Z,34.20
2017-10-15T12:37:24.289Z,34.00
2017-10-15T12:39:52.524Z,34.00
2017-10-15T12:42:20.752Z,33.90
2017-10-15T12:44:50.001Z,32.20
2017-10-15T12:47:18.233Z,32.20
2017-10-15T12:49:46.472Z,33.30
2017-10-15T12:52:14.741Z,32.20
2017-10-15T12:54:42.968Z,31.40
2017-10-15T12:57:11.976Z,32.70
2017-10-15T12:59:40.384Z,32.60
2017-10-15T13:02:08.616Z,32.00
2017-10-15T13:04:36.870Z,34.20
2017-10-15T13:07:05.262Z,32.00
2017-10-15T13:09:33.504Z,32.30
2017-10-15T13:12:01.736Z,33.00
2017-10-15T13:14:30.144Z,31.90
2017-10-15T13:16:58.391Z,31.90
2017-10-15T13:19:26.637Z,32.10
2017-10-15T13:21:54.905Z,30.70
2017-10-15T13:24:23.140Z,32.00
2017-10-15T13:26:52.156Z,32.70
2017-10-15T13:29:20.512Z,32.00
2017-10-15T13:31:48.749Z,31.50
2017-10-15T13:34:16.994Z,30.90
2017-10-15T13:36:46.040Z,32.10
2017-10-15T13:39:14.276Z,32.10
2017-10-15T13:41:42.518Z,33.50
2017-10-15T13:44:11.012Z,32.10
2017-10-15T13:46:39.244Z,31.20
2017-10-15T13:49:07.479Z,33.40
2017-10-15T13:51:36.754Z,32.40
2017-10-15T13:54:04.968Z,32.20
2017-10-15T13:56:33.204Z,32.30
2017-10-15T13:59:01.505Z,32.00
2017-10-15T14:01:29.735Z,32.70
2017-10-15T14:03:57.980Z,33.60
2017-10-15T14:06:26.239Z,31.70
2017-10-15T14:08:55.245Z,32.30
2017-10-15T14:11:23.505Z,32.30
2017-10-15T14:13:51.885Z,32.30
2017-10-15T14:16:20.125Z,32.20
2017-10-15T14:18:49.124Z,31.90
2017-10-15T14:21:17.401Z,31.80
2017-10-15T14:23:45.628Z,30.80
2017-10-15T14:26:13.869Z,30.00
2017-10-15T14:28:42.148Z,29.90
2017-10-15T14:31:10.389Z,30.60
2017-10-15T14:33:38.625Z,29.80
2017-10-15T14:36:06.892Z,30.60
2017-10-15T14:38:35.884Z,30.80
2017-10-15T14:41:04.132Z,30.10
2017-10-15T14:43:33.376Z,29.10
2017-10-15T14:46:01.604Z,29.00
2017-10-15T14:48:29.848Z,29.40
2017-10-15T14:50:58.100Z,30.00
2017-10-15T14:53:27.096Z,29.90
2017-10-15T14:55:55.337Z,29.90
2017-10-15T14:58:24.476Z,31.30
2017-10-15T15:00:52.710Z,31.30
2017-10-15T15:03:20.953Z,30.30
2017-10-15T15:05:49.219Z,31.20
2017-10-15T15:08:17.458Z,30.90
2017-10-15T15:10:46.461Z,31.80
2017-10-15T15:13:15.054Z,31.70
2017-10-15T15:15:43.300Z,31.70
2017-10-15T15:18:11.533Z,33.20
2017-10-15T15:20:40.561Z,34.20
2017-10-15T15:23:08.787Z,34.20
2017-10-15T15:25:37.037Z,35.30
2017-10-15T15:28:06.064Z,36.60
2017-10-15T15:30:34.300Z,36.60
2017-10-15T15:33:02.565Z,38.30
2017-10-15T15:35:31.625Z,39.70
2017-10-15T15:37:59.857Z,39.70
2017-10-15T15:40:28.105Z,41.00
2017-10-15T15:42:56.390Z,41.50
2017-10-15T15:45:25.393Z,43.60
2017-10-15T15:47:53.633Z,43.60
2017-10-15T15:50:22.660Z,44.20
2017-10-15T15:52:50.909Z,44.20
2017-10-15T15:55:19.153Z,45.10
2017-10-15T15:57:47.424Z,45.80
2017-10-15T16:00:15.669Z,46.60
2017-10-15T16:02:43.936Z,46.60
2017-10-15T16:05:12.214Z,47.40
2017-10-15T16:07:40.449Z,47.60
2017-10-15T16:10:08.684Z,48.70
2017-10-15T16:12:37.927Z,50.30
2017-10-15T16:15:06.189Z,50.20
2017-10-15T16:17:34.428Z,50.80
2017-10-15T16:20:02.828Z,51.90
2017-10-15T16:22:31.070Z,52.50
2017-10-15T16:24:59.310Z,53.20
2017-10-15T16:27:27.589Z,53.70
2017-10-15T16:29:55.828Z,53.70
2017-10-15T16:32:24.088Z,54.50
2017-10-15T16:34:52.361Z,54.60
2017-10-15T16:37:20.612Z,55.50
2017-10-15T16:39:48.852Z,55.90
2017-10-15T16:42:17.123Z,57.00
2017-10-15T16:44:45.365Z,57.40
2017-10-15T16:47:14.363Z,58.90
2017-10-15T16:49:42.616Z,58.80
2017-10-15T16:52:11.621Z,60.50
2017-10-15T16:54:40.785Z,60.40
2017-10-15T16:57:09.065Z,61.20
2017-10-15T16:59:37.300Z,61.40
2017-10-15T17:02:05.564Z,61.80
2017-10-15T17:04:34.618Z,62.50
2017-10-15T17:07:04.358Z,62.90
2017-10-15T17:09:32.584Z,62.90
2017-10-15T17:12:01.635Z,63.40
2017-10-15T17:14:29.861Z,63.30
2017-10-15T17:16:58.100Z,63.20
2017-10-15T17:19:26.473Z,64.00
2017-10-15T17:21:54.713Z,63.80
2017-10-15T17:24:23.737Z,65.00
2017-10-15T17:26:52.212Z,65.00
2017-10-15T17:29:20.436Z,65.40
2017-10-15T17:31:48.677Z,65.20
2017-10-15T17:34:17.786Z,65.50
2017-10-15T17:36:47.970Z,65.40
2017-10-15T17:39:16.972Z,66.60
2017-10-15T17:41:45.228Z,66.60
2017-10-15T17:44:13.457Z,66.90
2017-10-15T17:46:41.737Z,66.80
2017-10-15T17:49:09.968Z,67.20
2017-10-15T17:51:38.992Z,68.30
2017-10-15T17:54:07.687Z,67.80
2017-10-15T17:56:41.600Z,68.30
2017-10-15T17:59:09.972Z,68.00
2017-10-15T18:01:38.228Z,67.90
2017-10-15T18:04:06.453Z,67.60
2017-10-15T18:06:34.932Z,67.80
2017-10-15T18:09:03.177Z,69.00
2017-10-15T18:11:31.405Z,69.30
2017-10-15T18:13:59.684Z,68.50
2017-10-15T18:16:27.922Z,68.90
2017-10-15T18:18:56.944Z,69.10
2017-10-15T18:21:25.196Z,69.00
2017-10-15T18:23:53.480Z,69.10
2017-10-15T18:26:22.184Z,69.10
2017-10-15T18:28:51.220Z,70.10
2017-10-15T18:31:19.455Z,70.00
2017-10-15T18:33:47.689Z,70.00
2017-10-15T18:36:16.730Z,70.20
2017-10-15T18:38:44.965Z,70.00
2017-10-15T18:41:13.327Z,70.80
2017-10-15T18:43:41.569Z,70.60
2017-10-15T18:46:09.808Z,71.10
2017-10-15T18:48:38.830Z,71.80
2017-10-15T18:51:07.103Z,71.70
2017-10-15T18:53:35.504Z,72.20
2017-10-15T18:56:04.510Z,73.40
2017-10-15T18:58:32.791Z,73.20
2017-10-15T19:01:01.025Z,74.00
2017-10-15T19:03:29.260Z,74.10
2017-10-15T19:05:57.534Z,74.10
2017-10-15T19:08:25.782Z,74.40
2017-10-15T19:10:54.017Z,74.80
2017-10-15T19:13:22.276Z,74.70
2017-10-15T19:15:50.513Z,75.00
2017-10-15T19:18:18.785Z,75.20
2017-10-15T19:20:47.481Z,75.30
2017-10-15T19:23:15.723Z,75.90
2017-10-15T19:25:43.958Z,76.00
2017-10-15T19:28:12.316Z,76.40
2017-10-15T19:30:40.544Z,76.60
2017-10-15T19:33:09.540Z,76.70
2017-10-15T19:35:37.846Z,76.70
2017-10-15T19:38:06.128Z,76.60
2017-10-15T19:40:34.392Z,76.60
2017-10-15T19:43:02.829Z,76.50
2017-10-15T19:45:31.060Z,78.10
2017-10-15T19:47:59.297Z,78.30
2017-10-15T19:50:28.336Z,78.10
2017-10-15T19:52:56.564Z,77.90
2017-10-15T19:55:25.568Z,78.10
2017-10-15T19:57:54.044Z,78.10
2017-10-15T20:00:22.286Z,78.00
2017-10-15T20:02:50.522Z,78.80
2017-10-15T20:05:18.784Z,79.80
2017-10-15T20:07:47.021Z,80.00
2017-10-15T20:10:16.013Z,80.70
2017-10-15T20:12:44.286Z,80.60
2017-10-15T20:15:12.525Z,81.30
2017-10-15T20:17:41.532Z,82.40
2017-10-15T20:20:09.792Z,82.40
2017-10-15T20:22:38.033Z,82.60
2017-10-15T20:25:06.265Z,82.20
2017-10-15T20:27:34.529Z,82.80
2017-10-15T20:30:02.825Z,82.60
2017-10-15T20:32:31.061Z,82.30
2017-10-15T20:35:00.093Z,82.30
2017-10-15T20:37:28.329Z,83.00
2017-10-15T20:39:56.577Z,82.30
2017-10-15T20:42:24.957Z,81.30
2017-10-15T20:44:54.019Z,82.10
2017-10-15T20:47:22.252Z,82.00
2017-10-15T20:49:50.515Z,82.40
2017-10-15T20:52:18.740Z,84.10
2017-10-15T20:54:46.977Z,83.60
2017-10-15T20:57:15.252Z,82.90
2017-10-15T20:59:43.484Z,82.30
2017-10-15T21:02:11.716Z,81.90
2017-10-15T21:04:40.844Z,81.40
2017-10-15T21:07:09.076Z,81.50
2017-10-15T21:09:38.081Z,81.40
2017-10-15T21:12:06.360Z,81.40
2017-10-15T21:14:34.596Z,81.90
2017-10-15T21:17:02.833Z,82.40
2017-10-15T21:19:31.885Z,82.20
2017-10-15T21:22:00.112Z,82.10
2017-10-15T21:24:28.354Z,82.00
2017-10-15T21:26:56.610Z,82.20
2017-10-15T21:29:24.840Z,82.20
2017-10-15T21:31:53.905Z,82.20
2017-10-15T21:34:22.165Z,82.10
2017-10-15T21:36:50.396Z,81.90
2017-10-15T21:39:18.645Z,82.70
2017-10-15T21:41:46.924Z,82.90
2017-10-15T21:44:15.179Z,83.10
2017-10-15T21:46:43.407Z,82.30
2017-10-15T21:49:11.676Z,81.80
2017-10-15T21:51:39.913Z,80.90
2017-10-15T21:54:08.918Z,81.20
2017-10-15T21:56:37.185Z,81.00
2017-10-15T21:59:05.412Z,81.90
2017-10-15T22:01:34.426Z,81.80
2017-10-15T22:04:02.698Z,81.80
2017-10-15T22:06:30.933Z,82.00
2017-10-15T22:08:59.233Z,83.20
2017-10-15T22:11:27.693Z,82.30
2017-10-15T22:13:55.930Z,82.40
2017-10-15T22:16:24.168Z,82.20
2017-10-15T22:18:58.744Z,82.60
2017-10-15T22:21:32.657Z,82.60
2017-10-15T22:24:01.801Z,83.00
2017-10-15T22:26:30.045Z,83.00
2017-10-15T22:28:58.272Z,83.00
2017-10-15T22:31:27.309Z,83.00
2017-10-15T22:33:55.549Z,83.00
2017-10-15T22:36:23.829Z,83.00
2017-10-15T22:38:52.282Z,82.90
2017-10-15T22:41:21.180Z,82.80
2017-10-15T22:43:49.423Z,82.80
2017-10-15T22:46:17.680Z,83.00
2017-10-15T22:48:45.918Z,83.70
2017-10-15T22:51:14.145Z,83.40
2017-10-15T22:53:43.394Z,83.90
2017-10-15T22:56:11.631Z,83.90
2017-10-15T22:58:39.866Z,83.80
2017-10-15T23:01:08.892Z,83.00
2017-10-15T23:03:37.124Z,83.10
2017-10-15T23:06:05.357Z,83.30
2017-10-15T23:08:34.392Z,83.00
2017-10-15T23:11:02.629Z,82.90
2017-10-15T23:13:30.860Z,83.10
2017-10-15T23:15:59.132Z,83.60
2017-10-15T23:18:27.363Z,84.20
2017-10-15T23:20:56.363Z,83.80
2017-10-15T23:23:24.631Z,83.70
2017-10-15T23:25:52.869Z,83.40
2017-10-15T23:28:21.870Z,84.80
2017-10-15T23:30:50.161Z,84.70
2017-10-15T23:33:18.388Z,84.90
2017-10-15T23:35:46.627Z,84.20
2017-10-15T23:38:15.653Z,84.00
2017-10-15T23:40:43.884Z,84.00
2017-10-15T23:43:12.888Z,83.70
2017-10-15T23:45:41.156Z,83.60
2017-10-15T23:48:09.387Z,83.50
2017-10-15T23:50:37.680Z,83.10
2017-10-15T23:53:05.964Z,83.70
2017-10-15T23:55:34.200Z,83.40
2017-10-15T23:58:02.427Z,83.70
